Flight Track Log - Related Links

Times and Time Zones

All times are in EDT time to prevent confusion due to time zone crossing. See the SWA378 flight status page for this flight to view local times or setup timezone preferences in your user account.

Time Position Orientation Groundspeed Altitude Reporting Facility
EDT Latitude Longitude Course Direction KTS MPH feet Rate Location/Type
Thu 01:34:48 PM 33.8781 -118.5019 202° Southwest 228 262 3,500  Level Los Angeles Center
Thu 01:35:50 PM 33.8067 -118.5089 90° East 266 306 5,700 2,784 Climbing Los Angeles Center
Thu 01:36:00 PM 33.8858 -118.6524 188° South  Level FlightAware Approximate
Thu 01:36:53 PM 33.7281 -118.5175 185° South 285 328 9,300  Level Los Angeles Center
Thu 01:37:54 PM 33.6672 -118.4222 127° Southeast 342 394 12,000 2,432 Climbing Los Angeles Center
Thu 01:39:00 PM 33.6333 -118.2086 90° East  Level FlightAware Approximate
Thu 01:39:58 PM 33.6572 -118.1758 93° East 391 450 16,800  Level Los Angeles Center
Thu 01:41:00 PM 33.6561 -118.0133 90° East 408 470 19,700 2,400 Climbing Los Angeles Center
Thu 01:42:03 PM 33.6547 -117.8703 91° East 427 491 21,800 1,968 Climbing Los Angeles Center
Thu 01:43:00 PM 33.6334 -117.7699 90° East  Level FlightAware Approximate
Thu 01:43:05 PM 33.6539 -117.7233 90° East 440 506 23,800  Level Los Angeles Center
Thu 01:44:07 PM 33.6511 -117.5731 91° East 449 517 25,900 1,839 Climbing Los Angeles Center
Thu 01:45:09 PM 33.6494 -117.4175 91° East 461 531 27,600 1,597 Climbing Los Angeles Center
Thu 01:46:11 PM 33.6467 -117.2597 91° East 470 541 29,200 1,790 Climbing Los Angeles Center
Thu 01:47:13 PM 33.6447 -117.0678 91° East 479 551 31,300 1,839 Climbing Los Angeles Center
Thu 01:48:15 PM 33.6711 -116.9125 78° East 477 549 33,000 1,452 Climbing Los Angeles Center
Thu 01:49:17 PM 33.6950 -116.7519 80° East 478 550 34,300 1,258 Climbing Los Angeles Center
Thu 01:50:19 PM 33.7178 -116.5942 80° East 478 550 35,600 1,306 Climbing Los Angeles Center
Thu 01:51:21 PM 33.7389 -116.4369 81° East 477 549 37,000 672 Climbing Los Angeles Center
Thu 01:52:24 PM 33.7603 -116.2836 80° East 470 541 37,000  Level Los Angeles Center
Thu 01:53:26 PM 33.7833 -116.0994 81° East 465 535 37,000  Level Los Angeles Center
Thu 01:54:28 PM 33.8033 -115.9444 81° East 467 537 37,000  Level Los Angeles Center
Thu 01:55:30 PM 33.8233 -115.7936 81° East 459 528 37,000  Level Los Angeles Center
Thu 01:56:32 PM 33.8428 -115.6408 81° East 461 531 37,000  Level Los Angeles Center
Thu 01:57:34 PM 33.8628 -115.4881 81° East 463 533 37,000  Level Los Angeles Center
Thu 01:58:36 PM 33.8817 -115.3361 81° East 460 529 37,000  Level Los Angeles Center
Thu 01:59:38 PM 33.9042 -115.1528 82° East 461 531 37,000  Level Los Angeles Center
Thu 02:00:41 PM 33.9239 -115.0019 81° East 458 527 37,000  Level Los Angeles Center
Thu 02:01:43 PM 33.9439 -114.8497 81° East 460 529 37,000  Level Los Angeles Center
Thu 02:02:45 PM 33.9639 -114.6978 81° East 459 528 37,000  Level Los Angeles Center
Thu 02:03:47 PM 33.9803 -114.5453 83° East 459 528 37,000  Level Los Angeles Center
Thu 02:04:49 PM 33.9992 -114.3947 81° East 457 526 37,000  Level Los Angeles Center
Thu 02:05:51 PM 34.0197 -114.2133 82° East 457 526 37,000  Level Los Angeles Center
Thu 02:06:53 PM 34.0394 -114.0614 81° East 457 526 37,000  Level Los Angeles Center
Thu 02:07:55 PM 34.0547 -113.9078 83° East 463 533 37,000  Level Los Angeles Center
Thu 02:08:57 PM 34.0725 -113.7567 82° East 459 528 37,000  Level Los Angeles Center
Thu 02:09:59 PM 34.0936 -113.5908 81° East 462 532 37,000  Level Los Angeles Center
Thu 02:10:52 PM 34.1081 -113.4561 83° East 459 528 37,000  Level Albuquerque Center
Thu 02:11:54 PM 34.1253 -113.3025 82° East 461 531 37,000  Level Albuquerque Center
Thu 02:12:56 PM 34.1414 -113.1514 83° East 458 527 37,000  Level Albuquerque Center
Thu 02:13:58 PM 34.1572 -113.0006 83° East 456 525 37,000  Level Albuquerque Center
Thu 02:15:00 PM 34.1733 -112.8503 83° East 453 521 37,000  Level Albuquerque Center
Thu 02:16:02 PM 34.1919 -112.6686 83° East 454 522 37,000  Level Albuquerque Center
Thu 02:17:04 PM 34.2094 -112.5183 82° East 452 520 37,000  Level Albuquerque Center
Thu 02:18:06 PM 34.2244 -112.3683 83° East 450 518 37,000  Level Albuquerque Center
Thu 02:19:08 PM 34.2394 -112.2164 83° East 452 520 37,000  Level Albuquerque Center
Thu 02:20:10 PM 34.2550 -112.0658 83° East 451 519 37,000  Level Albuquerque Center
Thu 02:21:11 PM 34.2703 -111.9136 83° East 451 519 37,000  Level Albuquerque Center
Thu 02:22:13 PM 34.2847 -111.7619 83° East 451 519 37,000  Level Albuquerque Center
Thu 02:23:15 PM 34.2997 -111.6106 83° East 450 518 37,000  Level Albuquerque Center
Thu 02:24:17 PM 34.3142 -111.4592 83° East 450 518 37,000  Level Albuquerque Center
Thu 02:25:19 PM 34.3369 -111.2806 81° East 448 516 37,000  Level Albuquerque Center
Thu 02:26:20 PM 34.3581 -111.1317 80° East 448 516 37,000  Level Albuquerque Center
Thu 02:27:22 PM 34.3761 -110.9806 82° East 452 520 37,000  Level Albuquerque Center
Thu 02:28:24 PM 34.3961 -110.8300 81° East 453 521 37,000  Level Albuquerque Center
Thu 02:29:26 PM 34.4197 -110.6775 79° East 459 528 37,000  Level Albuquerque Center
Thu 02:30:28 PM 34.4392 -110.5275 81° East 454 522 37,000  Level Albuquerque Center
Thu 02:31:29 PM 34.4600 -110.3386 82° East 467 537 37,000  Level Albuquerque Center
Thu 02:32:31 PM 34.4781 -110.1922 81° East 463 533 37,000  Level Albuquerque Center
Thu 02:33:33 PM 34.4964 -110.0458 81° East 461 531 37,000  Level Albuquerque Center
Thu 02:34:35 PM 34.5167 -109.8736 82° East 461 531 37,000  Level Albuquerque Center
Thu 02:35:37 PM 34.5342 -109.7250 82° East 464 534 37,000  Level Albuquerque Center
Thu 02:36:38 PM 34.5553 -109.5519 82° East 464 534 37,000  Level Albuquerque Center
Thu 02:37:40 PM 34.5731 -109.4078 81° East 458 527 37,000  Level Albuquerque Center
Thu 02:38:42 PM 34.5936 -109.2336 82° East 463 533 37,000  Level Albuquerque Center
Thu 02:39:44 PM 34.6097 -109.0842 82° East 468 539 37,000  Level Albuquerque Center
Thu 02:40:46 PM 34.6297 -108.9111 82° East 467 537 37,000  Level Albuquerque Center
Thu 02:41:47 PM 34.6456 -108.7614 83° East 467 537 37,000  Level Albuquerque Center
Thu 02:42:49 PM 34.6650 -108.5878 82° East 466 536 37,000  Level Albuquerque Center
Thu 02:43:51 PM 34.6803 -108.4431 83° East 462 532 37,000  Level Albuquerque Center
Thu 02:44:53 PM 34.6967 -108.2875 83° East 463 533 37,000  Level Albuquerque Center
Thu 02:45:55 PM 34.7131 -108.1339 83° East 460 529 37,000  Level Albuquerque Center
Thu 02:46:56 PM 34.7292 -107.9797 83° East 461 531 37,000  Level Albuquerque Center
Thu 02:47:58 PM 34.7442 -107.8231 83° East 465 535 37,000  Level Albuquerque Center
Thu 02:49:00 PM 34.7642 -107.6364 83° East 465 535 37,000  Level Albuquerque Center
Thu 02:50:02 PM 34.7792 -107.4806 83° East 468 539 37,000  Level Albuquerque Center
Thu 02:51:04 PM 34.7942 -107.3228 83° East 471 542 37,000  Level Albuquerque Center
Thu 02:52:05 PM 34.8094 -107.1669 83° East 469 540 37,000  Level Albuquerque Center
Thu 02:53:07 PM 34.8236 -107.0106 84° East 470 541 37,000  Level Albuquerque Center
Thu 02:54:09 PM 34.8381 -106.8547 84° East 471 542 37,000  Level Albuquerque Center
Thu 02:55:11 PM 34.8561 -106.6761 83° East 453 521 37,000  Level Albuquerque Center
Thu 02:56:13 PM 34.8714 -106.5156 83° East 467 537 37,000  Level Albuquerque Center
Thu 02:57:14 PM 34.8850 -106.3544 84° East 479 551 37,000  Level Albuquerque Center
Thu 02:58:16 PM 34.8978 -106.1969 84° East 473 544 37,000  Level Albuquerque Center
Thu 02:59:18 PM 34.9125 -106.0397 83° East 471 542 37,000  Level Albuquerque Center
Thu 03:00:20 PM 34.9297 -105.8439 84° East 474 545 37,000  Level Albuquerque Center
Thu 03:01:21 PM 34.9433 -105.6806 84° East 480 552 37,000  Level Albuquerque Center
Thu 03:02:23 PM 34.9567 -105.5164 84° East 483 556 37,000  Level Albuquerque Center
Thu 03:03:25 PM 34.9711 -105.3533 84° East 481 554 37,000  Level Albuquerque Center
Thu 03:04:27 PM 34.9836 -105.1892 85° East 482 555 37,000  Level Albuquerque Center
Thu 03:05:29 PM 34.9975 -105.0264 84° East 482 555 37,000  Level Albuquerque Center
Thu 03:06:30 PM 35.0100 -104.8625 85° East 482 555 37,000  Level Albuquerque Center
Thu 03:07:32 PM 35.0233 -104.6989 84° East 483 556 37,000  Level Albuquerque Center
Thu 03:08:34 PM 35.0375 -104.5106 85° East 477 549 37,000  Level Albuquerque Center
Thu 03:09:36 PM 35.0494 -104.3483 85° East 480 552 37,000  Level Albuquerque Center
Thu 03:10:38 PM 35.0606 -104.1864 85° East 482 555 37,000  Level Albuquerque Center
Thu 03:11:40 PM 35.0747 -104.0353 83° East 483 556 37,000  Level Albuquerque Center
Thu 03:12:41 PM 35.0853 -103.8628 86° East 481 554 37,000  Level Albuquerque Center
Thu 03:13:43 PM 35.0967 -103.7008 85° East 479 551 37,000  Level Albuquerque Center
Thu 03:14:45 PM 35.1094 -103.5111 85° East 478 550 37,000  Level Albuquerque Center
Thu 03:15:47 PM 35.1203 -103.3497 85° East 476 548 37,000  Level Albuquerque Center
Thu 03:16:49 PM 35.1311 -103.1869 85° East 477 549 37,000  Level Albuquerque Center
Thu 03:17:51 PM 35.1414 -103.0222 86° East 481 554 37,000  Level Albuquerque Center
Thu 03:18:53 PM 35.1503 -102.8719 86° East 482 555 37,000  Level Albuquerque Center
Thu 03:19:55 PM 35.1611 -102.6756 86° East 483 556 37,000  Level Albuquerque Center
Thu 03:20:57 PM 35.1714 -102.5108 86° East 486 559 37,000  Level Albuquerque Center
Thu 03:21:59 PM 35.1817 -102.3461 86° East 487 560 37,000  Level Albuquerque Center
Thu 03:23:01 PM 35.1897 -102.1819 87° East 487 560 37,000  Level Albuquerque Center
Thu 03:24:03 PM 35.1983 -102.0175 86° East 487 560 37,000  Level Albuquerque Center
Thu 03:25:04 PM 35.2100 -101.8319 86° East 491 565 37,000  Level Albuquerque Center
Thu 03:26:06 PM 35.2194 -101.6644 86° East 491 565 37,000  Level Albuquerque Center
Thu 03:27:08 PM 35.2275 -101.5139 86° East 487 560 37,000  Level Albuquerque Center
Thu 03:28:10 PM 35.2367 -101.3131 87° East 491 565 37,000  Level Albuquerque Center
Thu 03:29:12 PM 35.2450 -101.1372 87° East 490 564 37,000  Level Albuquerque Center
Thu 03:30:14 PM 35.2528 -100.9717 87° East 490 564 37,000  Level Albuquerque Center
Thu 03:31:16 PM 35.2600 -100.8069 87° East 488 562 37,000  Level Albuquerque Center
Thu 03:32:18 PM 35.2664 -100.6475 87° East 491 565 37,000  Level Albuquerque Center
Thu 03:33:20 PM 35.2744 -100.4828 87° East 487 560 37,000  Level Albuquerque Center
Thu 03:34:22 PM 35.2817 -100.2847 87° East 486 559 37,000  Level Albuquerque Center
Thu 03:35:24 PM 35.2878 -100.1189 87° East 488 562 37,000  Level Albuquerque Center
Thu 03:36:26 PM 35.2956 -99.9522 87° East 489 563 37,000  Level Albuquerque Center
Thu 03:37:28 PM 35.3008 -99.7839 88° East 493 567 37,000  Level Albuquerque Center
Thu 03:38:30 PM 35.3067 -99.6158 88° East 495 570 37,000  Level Albuquerque Center
Thu 03:39:32 PM 35.3114 -99.4481 88° East 495 570 37,000  Level Albuquerque Center
Thu 03:40:37 PM 35.3178 -99.2403 88° East 494 568 37,000  Level Fort Worth Center
Thu 03:41:37 PM 35.3242 -99.0725 87° East 494 568 37,000  Level Fort Worth Center
Thu 03:42:37 PM 35.3283 -98.9047 88° East 494 568 37,000  Level Fort Worth Center
Thu 03:43:37 PM 35.3325 -98.7392 88° East 494 568 37,000  Level Fort Worth Center
Thu 03:44:37 PM 35.3383 -98.5764 87° East 489 563 37,000  Level Fort Worth Center
Thu 03:45:37 PM 35.3417 -98.4342 88° East 474 545 37,000  Level Fort Worth Center
Thu 03:46:37 PM 35.3428 -98.2711 89° East 474 545 37,000  Level Fort Worth Center
Thu 03:47:37 PM 35.3397 -98.1033 91° East 474 545 37,000  Level Fort Worth Center
Thu 03:48:37 PM 35.3383 -97.9403 91° East 479 551 37,000  Level Fort Worth Center
Thu 03:49:37 PM 35.3369 -97.7750 91° East 479 551 37,000  Level Fort Worth Center
Thu 03:50:37 PM 35.3353 -97.6119 91° East 479 551 37,000  Level Fort Worth Center
Thu 03:51:37 PM 35.3333 -97.4289 91° East 489 563 37,000  Level Fort Worth Center
Thu 03:52:37 PM 35.3353 -97.2633 89° East 489 563 37,000  Level Fort Worth Center
Thu 03:53:37 PM 35.3267 -97.1056 94° East 479 551 37,000  Level Fort Worth Center
Thu 03:54:37 PM 35.3242 -96.9453 91° East 474 545 37,000  Level Fort Worth Center
Thu 03:55:37 PM 35.3211 -96.7850 91° East 469 540 37,000  Level Fort Worth Center
Thu 03:56:37 PM 35.3183 -96.6300 91° East 463 533 37,000  Level Fort Worth Center
Thu 03:57:37 PM 35.3150 -96.4697 91° East 457 526 37,000  Level Fort Worth Center
Thu 03:58:37 PM 35.3139 -96.3144 90° East 457 526 37,000 50 Level Fort Worth Center
Thu 03:59:37 PM 35.3083 -96.1569 92° East 457 526 37,100 650 Climbing Fort Worth Center
Thu 04:00:37 PM 35.3044 -95.9992 92° East 457 526 38,300 950 Climbing Fort Worth Center
Thu 04:01:37 PM 35.3047 -95.8567 90° East 457 526 39,000 350 Climbing Fort Worth Center
Thu 04:02:37 PM 35.2986 -95.6942 93° East 462 532 39,000  Level Fort Worth Center
Thu 04:04:21 PM 35.2906 -95.4192 92° East 443 510 39,000  Level Memphis Center
Thu 04:05:21 PM 35.2864 -95.2586 92° East 461 531 39,000  Level Memphis Center
Thu 04:06:21 PM 35.2822 -95.0983 92° East 466 536 39,000  Level Memphis Center
Thu 04:07:21 PM 35.2758 -94.9375 93° East 466 536 39,000  Level Memphis Center
Thu 04:08:21 PM 35.2733 -94.7772 91° East 471 542 39,000  Level Memphis Center
Thu 04:09:21 PM 35.2650 -94.5964 93° East 471 542 39,000  Level Memphis Center
Thu 04:10:21 PM 35.2578 -94.4358 93° East 476 548 39,000  Level Memphis Center
Thu 04:11:21 PM 35.2525 -94.2728 92° East 482 555 39,000  Level Memphis Center
Thu 04:12:21 PM 35.2472 -94.1122 92° East 482 555 39,000  Level Memphis Center
Thu 04:13:21 PM 35.2394 -93.9492 93° East 482 555 39,000  Level Memphis Center
Thu 04:14:21 PM 35.2336 -93.7889 93° East 482 555 39,000  Level Memphis Center
Thu 04:15:21 PM 35.2275 -93.6258 93° East 482 555 39,000  Level Memphis Center
Thu 04:16:21 PM 35.2192 -93.4578 93° East 482 555 39,000  Level Memphis Center
Thu 04:17:21 PM 35.2167 -93.3003 91° East 476 548 39,000  Level Memphis Center
Thu 04:18:21 PM 35.2061 -93.1269 94° East 482 555 39,000  Level Memphis Center
Thu 04:19:21 PM 35.1992 -92.9667 93° East 487 560 39,000  Level Memphis Center
Thu 04:20:21 PM 35.1903 -92.7911 93° East 487 560 39,000  Level Memphis Center
Thu 04:21:20 PM 35.1806 -92.6436 95° East 487 560 39,000  Level Memphis Center
Thu 04:22:21 PM 35.1731 -92.4783 93° East 492 566 39,000  Level Memphis Center
Thu 04:23:21 PM 35.1631 -92.3128 94° East 492 566 39,000  Level Memphis Center
Thu 04:24:21 PM 35.1553 -92.1475 93° East 492 566 39,000  Level Memphis Center
Thu 04:25:21 PM 35.1450 -91.9822 94° East 487 560 39,000  Level Memphis Center
Thu 04:26:21 PM 35.1344 -91.8172 94° East 487 560 39,000  Level Memphis Center
Thu 04:27:21 PM 35.1258 -91.6494 94° East 487 560 39,000  Level Memphis Center
Thu 04:28:21 PM 35.1169 -91.4817 94° East 487 560 39,000  Level Memphis Center
Thu 04:29:21 PM 35.1081 -91.3014 93° East 482 555 39,000  Level Memphis Center
Thu 04:30:21 PM 35.0967 -91.1364 95° East 482 555 39,000  Level Memphis Center
Thu 04:31:21 PM 35.0850 -90.9864 95° East 482 555 39,000  Level Memphis Center
Thu 04:32:20 PM 35.0772 -90.8519 94° East 487 560 39,000  Level Memphis Center
Thu 04:33:21 PM 35.0656 -90.6539 94° East 487 560 39,000  Level Memphis Center
Thu 04:34:21 PM 35.0531 -90.4889 95° East 487 560 39,000  Level Memphis Center
Thu 04:35:21 PM 35.0428 -90.3217 94° East 494 568 39,000  Level Memphis Center
Thu 04:36:21 PM 35.0300 -90.1492 95° East 500 575 39,000  Level Memphis Center
Thu 04:37:21 PM 35.0172 -89.9667 95° East 500 575 39,000  Level Memphis Center
Thu 04:38:21 PM 34.9978 -89.7994 98° East 500 575 39,000  Level Memphis Center
Thu 04:39:21 PM 34.9697 -89.6222 101° East 518 596 39,000  Level Memphis Center
Thu 04:40:21 PM 34.9394 -89.4578 103° East 507 583 39,000  Level Memphis Center
Thu 04:41:21 PM 34.9172 -89.3111 100° East 495 570 39,000  Level Memphis Center
Thu 04:42:21 PM 34.8908 -89.1519 101° East 490 564 39,000 -250 Level Memphis Center
Thu 04:43:21 PM 34.8661 -88.9853 100° East 490 564 38,500 -700 Descending Memphis Center
Thu 04:44:21 PM 34.8392 -88.8214 101° East 490 564 37,600 -950 Descending Memphis Center
Thu 04:45:21 PM 34.8139 -88.6447 100° East 508 585 36,600 -1,000 Descending Memphis Center
Thu 04:46:21 PM 34.7864 -88.4631 100° East 508 585 35,600 -950 Descending Memphis Center
Thu 04:47:21 PM 34.7564 -88.2894 102° East 503 579 34,700 -950 Descending Memphis Center
Thu 04:48:21 PM 34.7303 -88.1106 100° East 517 595 33,700 -950 Descending Memphis Center
Thu 04:49:21 PM 34.7019 -87.9397 101° East 525 604 32,800 -950 Descending Memphis Center
Thu 04:50:21 PM 34.6736 -87.7686 101° East 520 598 31,800 -900 Descending Memphis Center
Thu 04:51:21 PM 34.6469 -87.6028 101° East 508 585 31,000 -268 Descending Memphis Center
Thu 04:53:20 PM 34.5886 -87.2811 102° East 490 564 31,000  Level Atlanta Center
Thu 04:54:20 PM 34.5611 -87.1236 102° East 496 571 31,000  Level Atlanta Center
Thu 04:55:20 PM 34.5297 -86.9586 103° East 496 571 31,000 -150 Level Atlanta Center
Thu 04:56:20 PM 34.4981 -86.7961 103° East 496 571 30,700 -1,100 Descending Atlanta Center
Thu 04:57:20 PM 34.4681 -86.6439 103° East 478 550 28,800 -1,700 Descending Atlanta Center
Thu 04:58:20 PM 34.4378 -86.4944 104° East 466 536 27,300 -1,250 Descending Atlanta Center
Thu 04:59:20 PM 34.4008 -86.3475 107° East 453 521 26,300 -1,000 Descending Atlanta Center
Thu 05:00:20 PM 34.3681 -86.2056 106° East 448 516 25,300 -1,000 Descending Atlanta Center
Thu 05:01:20 PM 34.3369 -86.0639 105° East 443 510 24,300 -650 Descending Atlanta Center
Thu 05:02:20 PM 34.3039 -85.9197 105° East 438 504 24,000 -150 Descending Atlanta Center
Thu 05:03:20 PM 34.2683 -85.7706 106° East 438 504 24,000  Level Atlanta Center
Thu 05:04:20 PM 34.2347 -85.6267 106° East 433 498 24,000 -650 Level Atlanta Center
Thu 05:05:20 PM 34.1989 -85.4881 107° East 433 498 22,700 -2,250 Descending Atlanta Center
Thu 05:06:20 PM 34.1653 -85.3417 105° East 443 510 19,500 -3,200 Descending Atlanta Center
Thu 05:07:20 PM 34.1311 -85.2008 106° East 443 510 16,300 -2,700 Descending Atlanta Center
Thu 05:08:20 PM 34.0989 -85.0722 107° East 443 510 14,100 -1,400 Descending Atlanta Center
Thu 05:09:20 PM 34.0414 -84.9614 122° Southeast 421 484 13,500 -800 Descending Atlanta Center
Thu 05:10:20 PM 33.9689 -84.8731 135° Southeast 384 442 12,500 -750 Descending Atlanta Center
Thu 05:11:20 PM 33.8964 -84.7797 133° Southeast 376 433 12,000 -313 Descending Atlanta Center
Thu 05:11:56 PM 33.8500 -84.7000 125° Southeast 372 428 12,000  Level Atlanta TRACON
Thu 05:12:56 PM 33.7667 -84.6167 140° Southeast 362 417 12,000 -100 Level Atlanta TRACON
Thu 05:13:56 PM 33.7333 -84.5333 116° Southeast 301 346 11,800 -850 Descending Atlanta TRACON
Thu 05:14:56 PM 33.7333 -84.4333 90° East 292 336 10,300 -1,500 Descending Atlanta TRACON
Thu 05:15:56 PM 33.7333 -84.3500 90° East 251 289 8,800 -1,400 Descending Atlanta TRACON
Thu 05:16:56 PM 33.7333 -84.2833 90° East 210 242 7,500 -1,300 Descending Atlanta TRACON
Thu 05:17:56 PM 33.7167 -84.2333 112° Southeast 197 227 6,200 -1,400 Descending Atlanta TRACON
Thu 05:18:56 PM 33.6667 -84.2500 196° South 161 185 4,700 -1,500 Descending Atlanta TRACON
Thu 05:19:56 PM 33.6500 -84.2833 239° Southwest 145 167 3,200 -1,240 Descending Atlanta TRACON
Thu 05:20:57 PM 33.6500 -84.3333 270° West 134 154 2,200 -843 Descending Atlanta TRACON
Thu 05:21:57 PM 33.6500 -84.3833 270° West 136 157 1,500 -700 Descending Atlanta TRACON
Thu 05:23:00 PM 33.6333 -84.4167 241° Southwest  Level FlightAware Approximate
Thu 05:30:00 PM 33.6367 -84.4279 241° Southwest  Level Estimated
Thu 05:31:00 PM 33.6367 -84.4279 241° Southwest  Level Estimated

Login

Don't have an account? Register now (free) for customized features, flight alerts, and more!